sensor_id;sensor_type;location;lat;lon;timestamp;P1;durP1;ratioP1;P2;durP2;ratioP2
64957;SDS011;51486;50.232;19.208;2022-08-16T00:00:29;9.40;;;4.67;;
64957;SDS011;51486;50.232;19.208;2022-08-16T00:02:58;5.23;;;3.50;;
64957;SDS011;51486;50.232;19.208;2022-08-16T00:05:24;9.87;;;4.87;;
64957;SDS011;51486;50.232;19.208;2022-08-16T00:07:50;8.87;;;4.23;;
64957;SDS011;51486;50.232;19.208;2022-08-16T00:10:16;6.33;;;3.90;;
64957;SDS011;51486;50.232;19.208;2022-08-16T00:12:42;7.70;;;4.93;;
64957;SDS011;51486;50.232;19.208;2022-08-16T00:15:10;9.00;;;4.63;;
64957;SDS011;51486;50.232;19.208;2022-08-16T00:17:38;9.13;;;4.93;;
64957;SDS011;51486;50.232;19.208;2022-08-16T00:20:04;10.30;;;4.63;;
64957;SDS011;51486;50.232;19.208;2022-08-16T00:22:33;6.40;;;4.23;;
64957;SDS011;51486;50.232;19.208;2022-08-16T00:24:59;11.27;;;4.60;;
64957;SDS011;51486;50.232;19.208;2022-08-16T00:27:25;10.40;;;4.60;;
64957;SDS011;51486;50.232;19.208;2022-08-16T00:29:50;10.57;;;4.30;;
64957;SDS011;51486;50.232;19.208;2022-08-16T00:32:16;8.17;;;4.83;;
64957;SDS011;51486;50.232;19.208;2022-08-16T00:34:43;7.63;;;3.40;;
64957;SDS011;51486;50.232;19.208;2022-08-16T00:37:08;8.83;;;4.43;;
64957;SDS011;51486;50.232;19.208;2022-08-16T00:39:34;8.13;;;4.17;;
64957;SDS011;51486;50.232;19.208;2022-08-16T00:41:59;7.27;;;4.90;;
64957;SDS011;51486;50.232;19.208;2022-08-16T00:44:24;9.07;;;5.07;;
64957;SDS011;51486;50.232;19.208;2022-08-16T00:46:52;6.47;;;3.80;;
64957;SDS011;51486;50.232;19.208;2022-08-16T00:49:21;9.80;;;4.33;;
64957;SDS011;51486;50.232;19.208;2022-08-16T00:51:47;8.70;;;5.10;;
64957;SDS011;51486;50.232;19.208;2022-08-16T00:54:14;7.57;;;4.53;;
64957;SDS011;51486;50.232;19.208;2022-08-16T00:56:41;10.83;;;5.07;;
64957;SDS011;51486;50.232;19.208;2022-08-16T00:59:10;9.80;;;4.53;;
64957;SDS011;51486;50.232;19.208;2022-08-16T01:01:38;8.17;;;4.53;;
64957;SDS011;51486;50.232;19.208;2022-08-16T01:04:05;8.90;;;4.77;;
64957;SDS011;51486;50.232;19.208;2022-08-16T01:06:31;12.80;;;5.83;;
64957;SDS011;51486;50.232;19.208;2022-08-16T01:08:58;9.80;;;4.87;;
64957;SDS011;51486;50.232;19.208;2022-08-16T01:11:25;7.50;;;4.73;;
64957;SDS011;51486;50.232;19.208;2022-08-16T01:13:53;11.00;;;5.47;;
64957;SDS011;51486;50.232;19.208;2022-08-16T01:16:23;13.20;;;6.10;;
64957;SDS011;51486;50.232;19.208;2022-08-16T01:18:56;8.30;;;5.07;;
64957;SDS011;51486;50.232;19.208;2022-08-16T01:26:48;10.27;;;4.60;;
64957;SDS011;51486;50.232;19.208;2022-08-16T01:29:17;9.47;;;4.63;;
64957;SDS011;51486;50.232;19.208;2022-08-16T01:31:47;7.20;;;5.27;;
64957;SDS011;51486;50.232;19.208;2022-08-16T01:34:13;10.70;;;5.27;;
64957;SDS011;51486;50.232;19.208;2022-08-16T01:36:41;15.90;;;5.93;;
64957;SDS011;51486;50.232;19.208;2022-08-16T01:39:11;12.20;;;5.60;;
64957;SDS011;51486;50.232;19.208;2022-08-16T01:41:40;15.03;;;5.53;;
64957;SDS011;51486;50.232;19.208;2022-08-16T01:44:05;8.83;;;5.27;;
64957;SDS011;51486;50.232;19.208;2022-08-16T01:46:44;9.03;;;5.53;;
64957;SDS011;51486;50.232;19.208;2022-08-16T01:49:44;14.47;;;5.87;;
64957;SDS011;51486;50.232;19.208;2022-08-16T01:52:06;11.17;;;5.83;;
64957;SDS011;51486;50.232;19.208;2022-08-16T01:54:36;11.90;;;5.63;;
64957;SDS011;51486;50.232;19.208;2022-08-16T01:57:02;9.93;;;4.83;;
64957;SDS011;51486;50.232;19.208;2022-08-16T01:59:29;7.67;;;4.90;;
64957;SDS011;51486;50.232;19.208;2022-08-16T02:01:55;8.90;;;4.50;;
64957;SDS011;51486;50.232;19.208;2022-08-16T02:04:22;7.47;;;4.33;;
64957;SDS011;51486;50.232;19.208;2022-08-16T02:06:49;9.93;;;5.10;;
64957;SDS011;51486;50.232;19.208;2022-08-16T02:09:16;9.17;;;5.97;;
64957;SDS011;51486;50.232;19.208;2022-08-16T02:11:44;12.03;;;6.00;;
64957;SDS011;51486;50.232;19.208;2022-08-16T02:14:11;11.43;;;6.17;;
64957;SDS011;51486;50.232;19.208;2022-08-16T02:16:36;21.57;;;6.33;;
64957;SDS011;51486;50.232;19.208;2022-08-16T02:19:03;10.67;;;5.47;;
64957;SDS011;51486;50.232;19.208;2022-08-16T02:21:29;10.67;;;5.93;;
64957;SDS011;51486;50.232;19.208;2022-08-16T02:23:55;14.03;;;5.90;;
64957;SDS011;51486;50.232;19.208;2022-08-16T02:26:20;14.17;;;5.30;;
64957;SDS011;51486;50.232;19.208;2022-08-16T02:28:46;9.23;;;4.90;;
64957;SDS011;51486;50.232;19.208;2022-08-16T02:31:12;22.33;;;5.40;;
64957;SDS011;51486;50.232;19.208;2022-08-16T02:33:39;9.93;;;5.33;;
64957;SDS011;51486;50.232;19.208;2022-08-16T02:36:05;14.07;;;5.20;;
64957;SDS011;51486;50.232;19.208;2022-08-16T02:38:31;8.43;;;5.97;;
64957;SDS011;51486;50.232;19.208;2022-08-16T02:40:57;11.43;;;5.63;;
64957;SDS011;51486;50.232;19.208;2022-08-16T02:43:23;13.90;;;7.00;;
64957;SDS011;51486;50.232;19.208;2022-08-16T02:45:49;15.43;;;6.50;;
64957;SDS011;51486;50.232;19.208;2022-08-16T02:48:15;16.70;;;5.73;;
64957;SDS011;51486;50.232;19.208;2022-08-16T02:50:40;14.93;;;6.20;;
64957;SDS011;51486;50.232;19.208;2022-08-16T02:53:06;12.97;;;6.87;;
64957;SDS011;51486;50.232;19.208;2022-08-16T02:55:32;18.13;;;6.20;;
64957;SDS011;51486;50.232;19.208;2022-08-16T02:57:57;39.40;;;12.37;;
64957;SDS011;51486;50.232;19.208;2022-08-16T03:00:23;61.03;;;20.43;;
64957;SDS011;51486;50.232;19.208;2022-08-16T03:02:48;145.77;;;39.10;;
64957;SDS011;51486;50.232;19.208;2022-08-16T03:05:14;130.13;;;36.03;;
64957;SDS011;51486;50.232;19.208;2022-08-16T03:07:40;88.63;;;29.07;;
64957;SDS011;51486;50.232;19.208;2022-08-16T03:10:07;32.30;;;13.87;;
64957;SDS011;51486;50.232;19.208;2022-08-16T03:12:35;26.73;;;10.97;;
64957;SDS011;51486;50.232;19.208;2022-08-16T03:15:01;28.20;;;11.00;;
64957;SDS011;51486;50.232;19.208;2022-08-16T03:17:26;30.20;;;11.57;;
64957;SDS011;51486;50.232;19.208;2022-08-16T03:19:52;30.80;;;12.17;;
64957;SDS011;51486;50.232;19.208;2022-08-16T03:22:18;36.80;;;13.70;;
64957;SDS011;51486;50.232;19.208;2022-08-16T03:24:45;36.50;;;12.33;;
64957;SDS011;51486;50.232;19.208;2022-08-16T03:27:10;35.33;;;13.03;;
64957;SDS011;51486;50.232;19.208;2022-08-16T03:29:36;39.63;;;13.27;;
64957;SDS011;51486;50.232;19.208;2022-08-16T03:32:01;41.50;;;13.67;;
64957;SDS011;51486;50.232;19.208;2022-08-16T03:34:29;30.00;;;12.00;;
64957;SDS011;51486;50.232;19.208;2022-08-16T03:36:57;29.80;;;12.13;;
64957;SDS011;51486;50.232;19.208;2022-08-16T03:39:24;22.50;;;10.77;;
64957;SDS011;51486;50.232;19.208;2022-08-16T03:41:49;16.43;;;8.93;;
64957;SDS011;51486;50.232;19.208;2022-08-16T03:44:15;24.20;;;7.47;;
64957;SDS011;51486;50.232;19.208;2022-08-16T03:46:41;22.83;;;9.80;;
64957;SDS011;51486;50.232;19.208;2022-08-16T03:49:07;24.03;;;10.53;;
64957;SDS011;51486;50.232;19.208;2022-08-16T03:51:34;44.77;;;13.60;;
64957;SDS011;51486;50.232;19.208;2022-08-16T03:54:00;42.20;;;12.50;;
64957;SDS011;51486;50.232;19.208;2022-08-16T03:56:25;29.40;;;12.33;;
64957;SDS011;51486;50.232;19.208;2022-08-16T03:58:51;19.73;;;10.33;;
64957;SDS011;51486;50.232;19.208;2022-08-16T04:01:17;27.43;;;12.73;;
64957;SDS011;51486;50.232;19.208;2022-08-16T04:03:43;55.83;;;15.93;;
64957;SDS011;51486;50.232;19.208;2022-08-16T04:06:08;61.07;;;19.70;;
64957;SDS011;51486;50.232;19.208;2022-08-16T04:08:34;53.80;;;17.37;;
64957;SDS011;51486;50.232;19.208;2022-08-16T04:10:59;44.90;;;15.13;;
64957;SDS011;51486;50.232;19.208;2022-08-16T04:13:25;27.20;;;12.17;;
64957;SDS011;51486;50.232;19.208;2022-08-16T04:15:52;28.40;;;10.20;;
64957;SDS011;51486;50.232;19.208;2022-08-16T04:18:17;24.80;;;9.90;;
64957;SDS011;51486;50.232;19.208;2022-08-16T04:20:43;27.20;;;10.70;;
64957;SDS011;51486;50.232;19.208;2022-08-16T04:23:09;24.13;;;9.67;;
64957;SDS011;51486;50.232;19.208;2022-08-16T04:25:35;16.47;;;7.53;;
64957;SDS011;51486;50.232;19.208;2022-08-16T04:28:01;15.10;;;7.83;;
64957;SDS011;51486;50.232;19.208;2022-08-16T04:30:27;17.17;;;8.67;;
64957;SDS011;51486;50.232;19.208;2022-08-16T04:32:53;25.07;;;10.97;;
64957;SDS011;51486;50.232;19.208;2022-08-16T04:35:19;40.53;;;13.67;;
64957;SDS011;51486;50.232;19.208;2022-08-16T04:37:46;25.83;;;9.53;;
64957;SDS011;51486;50.232;19.208;2022-08-16T04:40:13;26.87;;;11.17;;
64957;SDS011;51486;50.232;19.208;2022-08-16T04:42:39;20.47;;;9.87;;
64957;SDS011;51486;50.232;19.208;2022-08-16T04:45:07;21.73;;;9.63;;
64957;SDS011;51486;50.232;19.208;2022-08-16T04:47:35;32.20;;;9.57;;
64957;SDS011;51486;50.232;19.208;2022-08-16T04:50:02;19.53;;;8.10;;
64957;SDS011;51486;50.232;19.208;2022-08-16T04:52:30;16.13;;;7.60;;
64957;SDS011;51486;50.232;19.208;2022-08-16T04:54:55;23.10;;;8.27;;
64957;SDS011;51486;50.232;19.208;2022-08-16T04:57:21;16.73;;;7.80;;
64957;SDS011;51486;50.232;19.208;2022-08-16T04:59:46;17.83;;;7.20;;
64957;SDS011;51486;50.232;19.208;2022-08-16T05:02:11;17.97;;;8.67;;
64957;SDS011;51486;50.232;19.208;2022-08-16T05:04:37;17.90;;;8.47;;
64957;SDS011;51486;50.232;19.208;2022-08-16T05:07:02;14.40;;;7.13;;
64957;SDS011;51486;50.232;19.208;2022-08-16T05:09:28;17.03;;;8.17;;
64957;SDS011;51486;50.232;19.208;2022-08-16T05:11:53;16.93;;;7.77;;
64957;SDS011;51486;50.232;19.208;2022-08-16T05:14:20;17.60;;;8.83;;
64957;SDS011;51486;50.232;19.208;2022-08-16T05:16:45;17.40;;;8.73;;
64957;SDS011;51486;50.232;19.208;2022-08-16T05:19:11;14.70;;;7.93;;
64957;SDS011;51486;50.232;19.208;2022-08-16T05:21:36;13.47;;;7.50;;
64957;SDS011;51486;50.232;19.208;2022-08-16T05:24:02;13.80;;;7.33;;
64957;SDS011;51486;50.232;19.208;2022-08-16T05:26:29;11.40;;;6.17;;
64957;SDS011;51486;50.232;19.208;2022-08-16T05:28:56;14.37;;;6.37;;
64957;SDS011;51486;50.232;19.208;2022-08-16T05:31:25;13.13;;;5.53;;
64957;SDS011;51486;50.232;19.208;2022-08-16T05:33:52;10.50;;;5.27;;
64957;SDS011;51486;50.232;19.208;2022-08-16T05:36:17;12.73;;;5.80;;
64957;SDS011;51486;50.232;19.208;2022-08-16T05:38:44;10.87;;;5.57;;
64957;SDS011;51486;50.232;19.208;2022-08-16T05:41:09;12.23;;;5.40;;
64957;SDS011;51486;50.232;19.208;2022-08-16T05:43:35;7.50;;;4.60;;
64957;SDS011;51486;50.232;19.208;2022-08-16T05:46:01;8.13;;;4.33;;
64957;SDS011;51486;50.232;19.208;2022-08-16T05:48:27;7.47;;;4.17;;
64957;SDS011;51486;50.232;19.208;2022-08-16T05:50:52;10.10;;;4.70;;
64957;SDS011;51486;50.232;19.208;2022-08-16T05:53:18;10.20;;;4.90;;
64957;SDS011;51486;50.232;19.208;2022-08-16T05:55:43;35.23;;;5.83;;
64957;SDS011;51486;50.232;19.208;2022-08-16T05:58:08;17.67;;;5.07;;
64957;SDS011;51486;50.232;19.208;2022-08-16T06:00:34;10.00;;;4.37;;
64957;SDS011;51486;50.232;19.208;2022-08-16T06:03:00;9.37;;;5.47;;
64957;SDS011;51486;50.232;19.208;2022-08-16T06:05:25;14.63;;;4.13;;
64957;SDS011;51486;50.232;19.208;2022-08-16T06:07:51;6.10;;;3.83;;
64957;SDS011;51486;50.232;19.208;2022-08-16T06:10:17;8.07;;;4.50;;
64957;SDS011;51486;50.232;19.208;2022-08-16T06:12:43;7.40;;;4.23;;
64957;SDS011;51486;50.232;19.208;2022-08-16T06:15:10;8.53;;;4.23;;
64957;SDS011;51486;50.232;19.208;2022-08-16T06:17:37;9.23;;;4.10;;
64957;SDS011;51486;50.232;19.208;2022-08-16T06:20:04;11.13;;;4.63;;
64957;SDS011;51486;50.232;19.208;2022-08-16T06:22:30;8.00;;;4.53;;
64957;SDS011;51486;50.232;19.208;2022-08-16T06:24:55;13.43;;;4.47;;
64957;SDS011;51486;50.232;19.208;2022-08-16T06:27:21;8.95;;;4.05;;
64957;SDS011;51486;50.232;19.208;2022-08-16T06:29:46;7.10;;;4.60;;
64957;SDS011;51486;50.232;19.208;2022-08-16T06:32:12;6.53;;;3.83;;
64957;SDS011;51486;50.232;19.208;2022-08-16T06:34:37;7.80;;;3.97;;
64957;SDS011;51486;50.232;19.208;2022-08-16T06:37:03;9.65;;;4.45;;
64957;SDS011;51486;50.232;19.208;2022-08-16T06:39:29;6.60;;;4.38;;
64957;SDS011;51486;50.232;19.208;2022-08-16T06:41:55;9.73;;;4.32;;
64957;SDS011;51486;50.232;19.208;2022-08-16T06:44:21;10.55;;;4.80;;
64957;SDS011;51486;50.232;19.208;2022-08-16T06:46:46;10.02;;;4.38;;
64957;SDS011;51486;50.232;19.208;2022-08-16T06:49:12;13.48;;;4.43;;
64957;SDS011;51486;50.232;19.208;2022-08-16T06:51:37;7.75;;;4.28;;
64957;SDS011;51486;50.232;19.208;2022-08-16T06:54:05;9.48;;;4.60;;
64957;SDS011;51486;50.232;19.208;2022-08-16T06:56:31;8.48;;;4.22;;
64957;SDS011;51486;50.232;19.208;2022-08-16T06:58:56;7.88;;;3.70;;
64957;SDS011;51486;50.232;19.208;2022-08-16T07:01:22;8.68;;;4.35;;
64957;SDS011;51486;50.232;19.208;2022-08-16T07:03:48;8.27;;;3.83;;
64957;SDS011;51486;50.232;19.208;2022-08-16T07:06:14;6.28;;;4.05;;
64957;SDS011;51486;50.232;19.208;2022-08-16T07:08:42;7.50;;;3.63;;
64957;SDS011;51486;50.232;19.208;2022-08-16T07:11:08;7.10;;;2.92;;
64957;SDS011;51486;50.232;19.208;2022-08-16T07:13:34;5.80;;;3.65;;
64957;SDS011;51486;50.232;19.208;2022-08-16T07:16:00;4.60;;;3.00;;
64957;SDS011;51486;50.232;19.208;2022-08-16T07:18:27;8.65;;;4.13;;
64957;SDS011;51486;50.232;19.208;2022-08-16T07:20:53;8.68;;;4.10;;
64957;SDS011;51486;50.232;19.208;2022-08-16T07:23:19;12.25;;;3.65;;
64957;SDS011;51486;50.232;19.208;2022-08-16T07:25:45;6.95;;;3.65;;
64957;SDS011;51486;50.232;19.208;2022-08-16T07:28:12;6.45;;;3.65;;
64957;SDS011;51486;50.232;19.208;2022-08-16T07:30:39;5.10;;;3.22;;
64957;SDS011;51486;50.232;19.208;2022-08-16T07:33:05;4.97;;;2.92;;
64957;SDS011;51486;50.232;19.208;2022-08-16T07:35:32;5.00;;;2.97;;
64957;SDS011;51486;50.232;19.208;2022-08-16T07:37:57;7.10;;;3.42;;
64957;SDS011;51486;50.232;19.208;2022-08-16T07:40:23;6.93;;;3.55;;
64957;SDS011;51486;50.232;19.208;2022-08-16T07:42:50;10.32;;;3.90;;
64957;SDS011;51486;50.232;19.208;2022-08-16T07:45:16;9.43;;;3.67;;
64957;SDS011;51486;50.232;19.208;2022-08-16T07:47:42;6.45;;;3.63;;
64957;SDS011;51486;50.232;19.208;2022-08-16T07:50:08;6.45;;;3.33;;
64957;SDS011;51486;50.232;19.208;2022-08-16T07:52:34;5.30;;;2.90;;
64957;SDS011;51486;50.232;19.208;2022-08-16T07:55:00;6.03;;;3.10;;
64957;SDS011;51486;50.232;19.208;2022-08-16T07:57:25;5.70;;;3.33;;
64957;SDS011;51486;50.232;19.208;2022-08-16T07:59:51;6.95;;;3.20;;
64957;SDS011;51486;50.232;19.208;2022-08-16T08:02:16;4.15;;;2.97;;
64957;SDS011;51486;50.232;19.208;2022-08-16T08:04:42;6.50;;;3.08;;
64957;SDS011;51486;50.232;19.208;2022-08-16T08:07:07;5.45;;;3.22;;
64957;SDS011;51486;50.232;19.208;2022-08-16T08:09:33;5.85;;;3.42;;
64957;SDS011;51486;50.232;19.208;2022-08-16T08:11:59;3.63;;;2.42;;
64957;SDS011;51486;50.232;19.208;2022-08-16T08:14:24;3.92;;;2.38;;
64957;SDS011;51486;50.232;19.208;2022-08-16T08:16:50;5.75;;;2.75;;
64957;SDS011;51486;50.232;19.208;2022-08-16T08:19:16;11.70;;;3.22;;
64957;SDS011;51486;50.232;19.208;2022-08-16T08:21:41;4.35;;;2.42;;
64957;SDS011;51486;50.232;19.208;2022-08-16T08:24:07;4.38;;;2.50;;
64957;SDS011;51486;50.232;19.208;2022-08-16T08:26:35;4.75;;;2.35;;
64957;SDS011;51486;50.232;19.208;2022-08-16T08:29:01;6.70;;;2.70;;
64957;SDS011;51486;50.232;19.208;2022-08-16T08:31:27;3.97;;;2.45;;
64957;SDS011;51486;50.232;19.208;2022-08-16T08:33:53;5.57;;;2.55;;
64957;SDS011;51486;50.232;19.208;2022-08-16T08:36:30;5.13;;;3.20;;
64957;SDS011;51486;50.232;19.208;2022-08-16T08:38:56;3.70;;;2.63;;
64957;SDS011;51486;50.232;19.208;2022-08-16T08:41:22;8.77;;;2.97;;
64957;SDS011;51486;50.232;19.208;2022-08-16T08:43:53;5.82;;;2.78;;
64957;SDS011;51486;50.232;19.208;2022-08-16T08:46:20;4.88;;;2.90;;
64957;SDS011;51486;50.232;19.208;2022-08-16T08:48:46;3.95;;;2.65;;
64957;SDS011;51486;50.232;19.208;2022-08-16T08:51:12;3.80;;;2.38;;
64957;SDS011;51486;50.232;19.208;2022-08-16T08:53:38;5.30;;;3.20;;
64957;SDS011;51486;50.232;19.208;2022-08-16T08:56:04;6.55;;;2.28;;
64957;SDS011;51486;50.232;19.208;2022-08-16T08:58:31;8.23;;;2.60;;
64957;SDS011;51486;50.232;19.208;2022-08-16T09:00:57;8.77;;;2.90;;
64957;SDS011;51486;50.232;19.208;2022-08-16T09:03:23;3.55;;;2.70;;
64957;SDS011;51486;50.232;19.208;2022-08-16T09:05:49;6.22;;;3.22;;
64957;SDS011;51486;50.232;19.208;2022-08-16T09:08:17;26.40;;;3.25;;
64957;SDS011;51486;50.232;19.208;2022-08-16T09:10:42;5.40;;;2.38;;
64957;SDS011;51486;50.232;19.208;2022-08-16T09:13:08;4.25;;;2.63;;
64957;SDS011;51486;50.232;19.208;2022-08-16T09:15:34;4.95;;;2.72;;
64957;SDS011;51486;50.232;19.208;2022-08-16T09:18:00;4.50;;;2.88;;
64957;SDS011;51486;50.232;19.208;2022-08-16T09:20:27;4.32;;;2.60;;
64957;SDS011;51486;50.232;19.208;2022-08-16T09:22:53;4.80;;;2.88;;
64957;SDS011;51486;50.232;19.208;2022-08-16T09:25:20;4.93;;;2.63;;
64957;SDS011;51486;50.232;19.208;2022-08-16T09:27:46;12.48;;;2.67;;
64957;SDS011;51486;50.232;19.208;2022-08-16T09:30:12;6.22;;;2.55;;
64957;SDS011;51486;50.232;19.208;2022-08-16T09:32:37;4.22;;;2.78;;
64957;SDS011;51486;50.232;19.208;2022-08-16T09:35:03;4.20;;;2.22;;
64957;SDS011;51486;50.232;19.208;2022-08-16T09:37:30;4.70;;;2.50;;
64957;SDS011;51486;50.232;19.208;2022-08-16T09:39:57;5.13;;;2.65;;
64957;SDS011;51486;50.232;19.208;2022-08-16T09:42:23;6.03;;;2.85;;
64957;SDS011;51486;50.232;19.208;2022-08-16T09:44:48;4.95;;;3.20;;
64957;SDS011;51486;50.232;19.208;2022-08-16T09:47:14;3.83;;;2.05;;
64957;SDS011;51486;50.232;19.208;2022-08-16T09:49:40;3.58;;;2.33;;
64957;SDS011;51486;50.232;19.208;2022-08-16T09:52:05;5.72;;;3.00;;
64957;SDS011;51486;50.232;19.208;2022-08-16T09:54:30;3.88;;;2.45;;
64957;SDS011;51486;50.232;19.208;2022-08-16T09:56:56;3.80;;;2.22;;
64957;SDS011;51486;50.232;19.208;2022-08-16T09:59:22;4.20;;;2.67;;
64957;SDS011;51486;50.232;19.208;2022-08-16T10:01:50;4.25;;;2.55;;
64957;SDS011;51486;50.232;19.208;2022-08-16T10:04:16;4.38;;;2.63;;
64957;SDS011;51486;50.232;19.208;2022-08-16T10:06:42;3.83;;;2.15;;
64957;SDS011;51486;50.232;19.208;2022-08-16T10:09:09;3.28;;;2.17;;
64957;SDS011;51486;50.232;19.208;2022-08-16T10:11:36;6.03;;;3.03;;
64957;SDS011;51486;50.232;19.208;2022-08-16T10:14:21;4.63;;;2.33;;
64957;SDS011;51486;50.232;19.208;2022-08-16T10:16:48;8.55;;;3.33;;
64957;SDS011;51486;50.232;19.208;2022-08-16T10:19:14;4.40;;;2.83;;
64957;SDS011;51486;50.232;19.208;2022-08-16T10:21:40;9.60;;;2.40;;
64957;SDS011;51486;50.232;19.208;2022-08-16T10:24:06;5.20;;;3.05;;
64957;SDS011;51486;50.232;19.208;2022-08-16T10:26:33;5.68;;;2.75;;
64957;SDS011;51486;50.232;19.208;2022-08-16T10:29:00;7.25;;;2.30;;
64957;SDS011;51486;50.232;19.208;2022-08-16T10:31:27;4.15;;;2.35;;
64957;SDS011;51486;50.232;19.208;2022-08-16T10:33:53;5.72;;;3.05;;
64957;SDS011;51486;50.232;19.208;2022-08-16T10:36:19;4.25;;;2.20;;
64957;SDS011;51486;50.232;19.208;2022-08-16T10:38:45;3.35;;;2.30;;
64957;SDS011;51486;50.232;19.208;2022-08-16T10:41:11;4.38;;;2.40;;
64957;SDS011;51486;50.232;19.208;2022-08-16T10:43:37;4.60;;;2.70;;
64957;SDS011;51486;50.232;19.208;2022-08-16T10:46:05;4.35;;;2.28;;
64957;SDS011;51486;50.232;19.208;2022-08-16T10:48:32;4.95;;;2.08;;
64957;SDS011;51486;50.232;19.208;2022-08-16T10:50:58;3.15;;;2.10;;
64957;SDS011;51486;50.232;19.208;2022-08-16T10:53:25;12.10;;;3.50;;
64957;SDS011;51486;50.232;19.208;2022-08-16T10:55:54;6.45;;;3.08;;
64957;SDS011;51486;50.232;19.208;2022-08-16T10:58:19;5.30;;;2.92;;
64957;SDS011;51486;50.232;19.208;2022-08-16T11:00:45;5.30;;;3.42;;
64957;SDS011;51486;50.232;19.208;2022-08-16T11:03:11;6.63;;;2.63;;
64957;SDS011;51486;50.232;19.208;2022-08-16T11:05:37;6.85;;;2.72;;
64957;SDS011;51486;50.232;19.208;2022-08-16T11:08:04;6.75;;;3.10;;
64957;SDS011;51486;50.232;19.208;2022-08-16T11:10:35;5.20;;;2.95;;
64957;SDS011;51486;50.232;19.208;2022-08-16T11:13:02;4.38;;;2.53;;
64957;SDS011;51486;50.232;19.208;2022-08-16T11:15:30;5.78;;;2.90;;
64957;SDS011;51486;50.232;19.208;2022-08-16T11:17:56;4.65;;;2.90;;
64957;SDS011;51486;50.232;19.208;2022-08-16T11:20:23;6.22;;;3.17;;
64957;SDS011;51486;50.232;19.208;2022-08-16T11:22:49;10.65;;;3.17;;
64957;SDS011;51486;50.232;19.208;2022-08-16T11:25:16;5.10;;;2.78;;
64957;SDS011;51486;50.232;19.208;2022-08-16T11:27:43;3.95;;;2.72;;
64957;SDS011;51486;50.232;19.208;2022-08-16T11:30:10;7.75;;;3.30;;
64957;SDS011;51486;50.232;19.208;2022-08-16T11:32:36;6.60;;;3.63;;
64957;SDS011;51486;50.232;19.208;2022-08-16T11:35:04;8.55;;;3.50;;
64957;SDS011;51486;50.232;19.208;2022-08-16T11:37:38;6.78;;;3.13;;
64957;SDS011;51486;50.232;19.208;2022-08-16T11:40:05;5.97;;;3.53;;
64957;SDS011;51486;50.232;19.208;2022-08-16T11:42:32;11.55;;;4.13;;
64957;SDS011;51486;50.232;19.208;2022-08-16T11:44:58;4.47;;;3.00;;
64957;SDS011;51486;50.232;19.208;2022-08-16T11:47:23;4.57;;;2.90;;
64957;SDS011;51486;50.232;19.208;2022-08-16T11:49:49;5.95;;;3.30;;
64957;SDS011;51486;50.232;19.208;2022-08-16T11:52:15;6.57;;;3.65;;
64957;SDS011;51486;50.232;19.208;2022-08-16T11:54:42;7.00;;;2.83;;
64957;SDS011;51486;50.232;19.208;2022-08-16T11:57:08;7.13;;;2.95;;
64957;SDS011;51486;50.232;19.208;2022-08-16T11:59:35;7.78;;;3.60;;
64957;SDS011;51486;50.232;19.208;2022-08-16T12:02:02;4.53;;;3.03;;
64957;SDS011;51486;50.232;19.208;2022-08-16T12:04:30;4.45;;;2.88;;
64957;SDS011;51486;50.232;19.208;2022-08-16T12:06:58;7.15;;;3.33;;
64957;SDS011;51486;50.232;19.208;2022-08-16T12:09:24;4.05;;;2.72;;
64957;SDS011;51486;50.232;19.208;2022-08-16T12:11:50;3.85;;;2.55;;
64957;SDS011;51486;50.232;19.208;2022-08-16T12:14:16;4.43;;;2.90;;
64957;SDS011;51486;50.232;19.208;2022-08-16T12:16:41;5.72;;;3.08;;
64957;SDS011;51486;50.232;19.208;2022-08-16T12:19:07;5.88;;;2.72;;
64957;SDS011;51486;50.232;19.208;2022-08-16T12:21:33;6.57;;;2.78;;
64957;SDS011;51486;50.232;19.208;2022-08-16T12:23:58;4.85;;;2.60;;
64957;SDS011;51486;50.232;19.208;2022-08-16T12:26:24;10.18;;;3.03;;
64957;SDS011;51486;50.232;19.208;2022-08-16T12:28:50;6.68;;;2.92;;
64957;SDS011;51486;50.232;19.208;2022-08-16T12:31:17;10.23;;;3.80;;
64957;SDS011;51486;50.232;19.208;2022-08-16T12:33:47;10.75;;;3.10;;
64957;SDS011;51486;50.232;19.208;2022-08-16T12:36:12;4.63;;;2.38;;
64957;SDS011;51486;50.232;19.208;2022-08-16T12:38:38;4.50;;;2.92;;
64957;SDS011;51486;50.232;19.208;2022-08-16T12:41:04;5.07;;;2.10;;
64957;SDS011;51486;50.232;19.208;2022-08-16T12:43:29;5.05;;;3.42;;
64957;SDS011;51486;50.232;19.208;2022-08-16T12:45:55;5.15;;;2.97;;
64957;SDS011;51486;50.232;19.208;2022-08-16T12:48:24;5.25;;;3.28;;
64957;SDS011;51486;50.232;19.208;2022-08-16T12:51:12;8.23;;;3.15;;
64957;SDS011;51486;50.232;19.208;2022-08-16T12:53:40;5.70;;;3.08;;
64957;SDS011;51486;50.232;19.208;2022-08-16T12:56:06;6.18;;;3.53;;
64957;SDS011;51486;50.232;19.208;2022-08-16T12:58:31;4.95;;;2.55;;
64957;SDS011;51486;50.232;19.208;2022-08-16T13:00:57;6.03;;;3.70;;
64957;SDS011;51486;50.232;19.208;2022-08-16T13:03:24;7.47;;;3.25;;
64957;SDS011;51486;50.232;19.208;2022-08-16T13:05:50;9.25;;;3.63;;
64957;SDS011;51486;50.232;19.208;2022-08-16T13:08:17;6.07;;;3.13;;
64957;SDS011;51486;50.232;19.208;2022-08-16T13:10:44;8.48;;;3.70;;
64957;SDS011;51486;50.232;19.208;2022-08-16T13:13:13;8.70;;;4.15;;
64957;SDS011;51486;50.232;19.208;2022-08-16T13:15:48;7.32;;;3.55;;
64957;SDS011;51486;50.232;19.208;2022-08-16T13:18:14;8.88;;;3.33;;
64957;SDS011;51486;50.232;19.208;2022-08-16T13:20:39;7.78;;;3.67;;
64957;SDS011;51486;50.232;19.208;2022-08-16T13:23:06;4.63;;;3.17;;
64957;SDS011;51486;50.232;19.208;2022-08-16T13:25:35;9.18;;;4.18;;
64957;SDS011;51486;50.232;19.208;2022-08-16T13:28:02;9.57;;;3.83;;
64957;SDS011;51486;50.232;19.208;2022-08-16T13:30:28;8.40;;;4.43;;
64957;SDS011;51486;50.232;19.208;2022-08-16T13:32:55;5.07;;;3.70;;
64957;SDS011;51486;50.232;19.208;2022-08-16T13:35:21;11.25;;;3.38;;
64957;SDS011;51486;50.232;19.208;2022-08-16T13:37:48;6.88;;;3.78;;
64957;SDS011;51486;50.232;19.208;2022-08-16T13:40:13;4.97;;;2.65;;
64957;SDS011;51486;50.232;19.208;2022-08-16T13:42:39;6.13;;;3.30;;
64957;SDS011;51486;50.232;19.208;2022-08-16T13:45:05;4.57;;;2.88;;
64957;SDS011;51486;50.232;19.208;2022-08-16T13:47:32;4.25;;;2.83;;
64957;SDS011;51486;50.232;19.208;2022-08-16T13:49:58;8.15;;;3.10;;
64957;SDS011;51486;50.232;19.208;2022-08-16T13:52:23;9.93;;;3.88;;
64957;SDS011;51486;50.232;19.208;2022-08-16T13:54:49;7.55;;;3.45;;
64957;SDS011;51486;50.232;19.208;2022-08-16T13:57:14;16.60;;;3.53;;
64957;SDS011;51486;50.232;19.208;2022-08-16T13:59:40;10.02;;;3.63;;
64957;SDS011;51486;50.232;19.208;2022-08-16T14:02:07;11.43;;;3.95;;
64957;SDS011;51486;50.232;19.208;2022-08-16T14:04:35;6.88;;;3.85;;
64957;SDS011;51486;50.232;19.208;2022-08-16T14:07:03;7.03;;;3.28;;
64957;SDS011;51486;50.232;19.208;2022-08-16T14:09:31;6.40;;;3.47;;
64957;SDS011;51486;50.232;19.208;2022-08-16T14:11:58;15.68;;;4.10;;
64957;SDS011;51486;50.232;19.208;2022-08-16T14:14:25;7.60;;;3.45;;
64957;SDS011;51486;50.232;19.208;2022-08-16T14:16:52;7.20;;;3.20;;
64957;SDS011;51486;50.232;19.208;2022-08-16T14:19:17;7.97;;;3.85;;
64957;SDS011;51486;50.232;19.208;2022-08-16T14:21:44;6.03;;;3.28;;
64957;SDS011;51486;50.232;19.208;2022-08-16T14:24:11;6.75;;;3.63;;
64957;SDS011;51486;50.232;19.208;2022-08-16T14:26:39;5.18;;;2.92;;
64957;SDS011;51486;50.232;19.208;2022-08-16T14:29:05;3.72;;;2.95;;